Terminal Aerodrome Forecast
Issued by NWS

Current Version | Previous Version | Text Only | Print | Product List | Glossary On
Versions: 1 2 3 4 5 6 7 8 9 10 11 12 13 14 15 16 17
000
FTUS46 KLOX 210000 RRA
TAFPRB
TAF
KPRB 210001Z 2100/2124 21017G25KT P6SM FEW120 SCT250
     FM210300 21010KT P6SM FEW010 FEW250
     FM210500 20008KT 5SM BR BKN007
     FM210630 24006KT 2SM BR OVC004
     FM210900 VRB03KT 5SM BR OVC007
     FM211500 26007KT P6SM BKN012
     FM211900 21019G27KT P6SM SCT017 SCT035=

USA.gov is the U.S. government's official web portal to all federal, state and local government web resources and services.